sensor_id;sensor_type;location;lat;lon;timestamp;temperature;humidity
49765;DHT22;35657;51.204;-4.130;2022-11-20T00:01:30;10.10;99.90
49765;DHT22;35657;51.204;-4.130;2022-11-20T00:03:57;10.10;99.90
49765;DHT22;35657;51.204;-4.130;2022-11-20T00:06:24;10.10;99.90
49765;DHT22;35657;51.204;-4.130;2022-11-20T00:08:50;10.20;99.90
49765;DHT22;35657;51.204;-4.130;2022-11-20T00:11:19;10.30;99.90
49765;DHT22;35657;51.204;-4.130;2022-11-20T00:13:47;10.20;99.90
49765;DHT22;35657;51.204;-4.130;2022-11-20T00:16:15;10.20;99.90
49765;DHT22;35657;51.204;-4.130;2022-11-20T00:18:41;10.10;99.90
49765;DHT22;35657;51.204;-4.130;2022-11-20T00:21:18;10.20;99.90
49765;DHT22;35657;51.204;-4.130;2022-11-20T00:23:45;10.10;99.90
49765;DHT22;35657;51.204;-4.130;2022-11-20T00:26:13;10.10;99.90
49765;DHT22;35657;51.204;-4.130;2022-11-20T00:28:39;10.10;99.90
49765;DHT22;35657;51.204;-4.130;2022-11-20T00:31:10;10.10;99.90
49765;DHT22;35657;51.204;-4.130;2022-11-20T00:33:36;10.10;99.90
49765;DHT22;35657;51.204;-4.130;2022-11-20T00:36:06;10.10;99.90
49765;DHT22;35657;51.204;-4.130;2022-11-20T00:38:33;10.20;99.90
49765;DHT22;35657;51.204;-4.130;2022-11-20T00:41:01;10.10;99.90
49765;DHT22;35657;51.204;-4.130;2022-11-20T00:43:27;10.10;99.90
49765;DHT22;35657;51.204;-4.130;2022-11-20T00:46:05;10.20;99.90
49765;DHT22;35657;51.204;-4.130;2022-11-20T00:48:31;10.20;99.90
49765;DHT22;35657;51.204;-4.130;2022-11-20T00:50:57;10.20;99.90
49765;DHT22;35657;51.204;-4.130;2022-11-20T00:53:23;10.20;99.90
49765;DHT22;35657;51.204;-4.130;2022-11-20T00:56:00;10.30;99.90
49765;DHT22;35657;51.204;-4.130;2022-11-20T00:58:33;10.40;99.90
49765;DHT22;35657;51.204;-4.130;2022-11-20T01:01:23;10.40;99.90
49765;DHT22;35657;51.204;-4.130;2022-11-20T01:03:52;10.50;99.90
49765;DHT22;35657;51.204;-4.130;2022-11-20T01:06:21;10.50;99.90
49765;DHT22;35657;51.204;-4.130;2022-11-20T01:08:48;10.40;99.90
49765;DHT22;35657;51.204;-4.130;2022-11-20T01:11:18;10.30;99.90
49765;DHT22;35657;51.204;-4.130;2022-11-20T01:13:46;10.30;99.90
49765;DHT22;35657;51.204;-4.130;2022-11-20T01:16:16;10.30;99.90
49765;DHT22;35657;51.204;-4.130;2022-11-20T01:18:45;10.30;99.90
49765;DHT22;35657;51.204;-4.130;2022-11-20T01:21:14;10.30;99.90
49765;DHT22;35657;51.204;-4.130;2022-11-20T01:23:41;10.30;99.90
49765;DHT22;35657;51.204;-4.130;2022-11-20T01:26:09;10.30;99.90
49765;DHT22;35657;51.204;-4.130;2022-11-20T01:28:36;10.30;99.90
49765;DHT22;35657;51.204;-4.130;2022-11-20T01:31:17;10.30;99.90
49765;DHT22;35657;51.204;-4.130;2022-11-20T01:33:45;10.30;99.90
49765;DHT22;35657;51.204;-4.130;2022-11-20T01:36:12;10.30;99.90
49765;DHT22;35657;51.204;-4.130;2022-11-20T01:38:38;10.30;99.90
49765;DHT22;35657;51.204;-4.130;2022-11-20T01:41:05;10.30;99.90
49765;DHT22;35657;51.204;-4.130;2022-11-20T01:43:31;10.30;99.90
49765;DHT22;35657;51.204;-4.130;2022-11-20T01:46:17;10.30;99.90
49765;DHT22;35657;51.204;-4.130;2022-11-20T01:51:17;10.50;99.90
49765;DHT22;35657;51.204;-4.130;2022-11-20T01:53:44;10.50;99.90
49765;DHT22;35657;51.204;-4.130;2022-11-20T01:56:12;10.60;99.90
49765;DHT22;35657;51.204;-4.130;2022-11-20T01:58:43;10.60;99.90
49765;DHT22;35657;51.204;-4.130;2022-11-20T02:01:10;10.50;99.90
49765;DHT22;35657;51.204;-4.130;2022-11-20T02:03:36;10.60;99.90
49765;DHT22;35657;51.204;-4.130;2022-11-20T02:08:51;10.60;99.90
49765;DHT22;35657;51.204;-4.130;2022-11-20T02:11:17;10.60;99.90
49765;DHT22;35657;51.204;-4.130;2022-11-20T02:13:43;10.60;99.90
49765;DHT22;35657;51.204;-4.130;2022-11-20T02:16:25;10.60;99.90
49765;DHT22;35657;51.204;-4.130;2022-11-20T02:18:52;10.60;99.90
49765;DHT22;35657;51.204;-4.130;2022-11-20T02:21:31;10.60;99.90
49765;DHT22;35657;51.204;-4.130;2022-11-20T02:24:15;10.60;99.90
49765;DHT22;35657;51.204;-4.130;2022-11-20T02:26:51;10.60;99.90
49765;DHT22;35657;51.204;-4.130;2022-11-20T02:29:24;10.60;99.90
49765;DHT22;35657;51.204;-4.130;2022-11-20T02:31:51;10.60;99.90
49765;DHT22;35657;51.204;-4.130;2022-11-20T02:34:18;10.60;99.90
49765;DHT22;35657;51.204;-4.130;2022-11-20T02:36:44;10.60;99.90
49765;DHT22;35657;51.204;-4.130;2022-11-20T02:39:13;10.60;99.90
49765;DHT22;35657;51.204;-4.130;2022-11-20T02:41:43;10.60;99.90
49765;DHT22;35657;51.204;-4.130;2022-11-20T02:44:09;10.60;99.90
49765;DHT22;35657;51.204;-4.130;2022-11-20T02:46:35;10.70;99.90
49765;DHT22;35657;51.204;-4.130;2022-11-20T02:49:02;10.70;99.90
49765;DHT22;35657;51.204;-4.130;2022-11-20T02:51:28;10.60;99.90
49765;DHT22;35657;51.204;-4.130;2022-11-20T02:53:54;10.70;99.90
49765;DHT22;35657;51.204;-4.130;2022-11-20T02:56:20;10.70;99.90
49765;DHT22;35657;51.204;-4.130;2022-11-20T02:58:46;10.70;99.90
49765;DHT22;35657;51.204;-4.130;2022-11-20T03:01:11;10.70;99.90
49765;DHT22;35657;51.204;-4.130;2022-11-20T03:03:37;10.70;99.90
49765;DHT22;35657;51.204;-4.130;2022-11-20T03:06:03;10.70;99.90
49765;DHT22;35657;51.204;-4.130;2022-11-20T03:08:29;10.70;99.90
49765;DHT22;35657;51.204;-4.130;2022-11-20T03:10:54;10.70;99.90
49765;DHT22;35657;51.204;-4.130;2022-11-20T03:13:20;10.70;99.90
49765;DHT22;35657;51.204;-4.130;2022-11-20T03:15:46;10.70;99.90
49765;DHT22;35657;51.204;-4.130;2022-11-20T03:18:11;10.60;99.90
49765;DHT22;35657;51.204;-4.130;2022-11-20T03:20:39;10.60;99.90
49765;DHT22;35657;51.204;-4.130;2022-11-20T03:23:04;10.60;99.90
49765;DHT22;35657;51.204;-4.130;2022-11-20T03:25:32;10.60;99.90
49765;DHT22;35657;51.204;-4.130;2022-11-20T03:27:57;10.50;99.90
49765;DHT22;35657;51.204;-4.130;2022-11-20T03:30:23;10.50;99.90
49765;DHT22;35657;51.204;-4.130;2022-11-20T03:32:49;10.50;99.90
49765;DHT22;35657;51.204;-4.130;2022-11-20T03:35:17;10.50;99.90
49765;DHT22;35657;51.204;-4.130;2022-11-20T03:37:43;10.50;99.90
49765;DHT22;35657;51.204;-4.130;2022-11-20T03:40:11;10.50;99.90
49765;DHT22;35657;51.204;-4.130;2022-11-20T03:42:37;10.50;99.90
49765;DHT22;35657;51.204;-4.130;2022-11-20T03:45:15;10.50;99.90
49765;DHT22;35657;51.204;-4.130;2022-11-20T03:47:41;10.50;99.90
49765;DHT22;35657;51.204;-4.130;2022-11-20T03:50:09;10.40;99.90
49765;DHT22;35657;51.204;-4.130;2022-11-20T03:52:35;10.40;99.90
49765;DHT22;35657;51.204;-4.130;2022-11-20T03:55:00;10.50;99.90
49765;DHT22;35657;51.204;-4.130;2022-11-20T03:57:26;10.40;99.90
49765;DHT22;35657;51.204;-4.130;2022-11-20T03:59:52;10.50;99.90
49765;DHT22;35657;51.204;-4.130;2022-11-20T04:02:18;10.40;99.90
49765;DHT22;35657;51.204;-4.130;2022-11-20T04:04:43;10.40;99.90
49765;DHT22;35657;51.204;-4.130;2022-11-20T04:07:09;10.40;99.90
49765;DHT22;35657;51.204;-4.130;2022-11-20T04:09:35;10.40;99.90
49765;DHT22;35657;51.204;-4.130;2022-11-20T04:12:01;10.40;99.90
49765;DHT22;35657;51.204;-4.130;2022-11-20T04:14:26;10.40;99.90
49765;DHT22;35657;51.204;-4.130;2022-11-20T04:16:52;10.50;99.90
49765;DHT22;35657;51.204;-4.130;2022-11-20T04:19:18;10.40;99.90
49765;DHT22;35657;51.204;-4.130;2022-11-20T04:21:44;10.40;99.90
49765;DHT22;35657;51.204;-4.130;2022-11-20T04:24:10;10.50;99.90
49765;DHT22;35657;51.204;-4.130;2022-11-20T04:26:37;10.50;99.90
49765;DHT22;35657;51.204;-4.130;2022-11-20T04:29:02;10.50;99.90
49765;DHT22;35657;51.204;-4.130;2022-11-20T04:31:31;10.50;99.90
49765;DHT22;35657;51.204;-4.130;2022-11-20T04:34:01;10.50;99.90
49765;DHT22;35657;51.204;-4.130;2022-11-20T04:36:29;10.50;99.90
49765;DHT22;35657;51.204;-4.130;2022-11-20T04:38:57;10.50;99.90
49765;DHT22;35657;51.204;-4.130;2022-11-20T04:41:25;10.50;99.90
49765;DHT22;35657;51.204;-4.130;2022-11-20T04:43:54;10.50;99.90
49765;DHT22;35657;51.204;-4.130;2022-11-20T04:46:25;10.50;99.90
49765;DHT22;35657;51.204;-4.130;2022-11-20T04:48:51;10.50;99.90
49765;DHT22;35657;51.204;-4.130;2022-11-20T04:51:17;10.50;99.90
49765;DHT22;35657;51.204;-4.130;2022-11-20T04:53:43;10.50;99.90
49765;DHT22;35657;51.204;-4.130;2022-11-20T04:56:11;10.50;99.90
49765;DHT22;35657;51.204;-4.130;2022-11-20T04:58:38;10.50;99.90
49765;DHT22;35657;51.204;-4.130;2022-11-20T05:01:09;10.50;99.90
49765;DHT22;35657;51.204;-4.130;2022-11-20T05:03:35;10.50;99.90
49765;DHT22;35657;51.204;-4.130;2022-11-20T05:06:02;10.50;99.90
49765;DHT22;35657;51.204;-4.130;2022-11-20T05:08:29;10.50;99.90
49765;DHT22;35657;51.204;-4.130;2022-11-20T05:11:20;10.40;99.90
49765;DHT22;35657;51.204;-4.130;2022-11-20T05:13:45;10.50;99.90
49765;DHT22;35657;51.204;-4.130;2022-11-20T05:16:13;10.40;99.90
49765;DHT22;35657;51.204;-4.130;2022-11-20T05:18:40;10.50;99.90
49765;DHT22;35657;51.204;-4.130;2022-11-20T05:21:06;10.50;99.90
49765;DHT22;35657;51.204;-4.130;2022-11-20T05:23:33;10.50;99.90
49765;DHT22;35657;51.204;-4.130;2022-11-20T05:25:59;10.50;99.90
49765;DHT22;35657;51.204;-4.130;2022-11-20T05:28:27;10.50;99.90
49765;DHT22;35657;51.204;-4.130;2022-11-20T05:30:53;10.50;99.90
49765;DHT22;35657;51.204;-4.130;2022-11-20T05:33:19;10.50;99.90
49765;DHT22;35657;51.204;-4.130;2022-11-20T05:35:45;10.50;99.90
49765;DHT22;35657;51.204;-4.130;2022-11-20T05:38:11;10.40;99.90
49765;DHT22;35657;51.204;-4.130;2022-11-20T05:40:37;10.40;99.90
49765;DHT22;35657;51.204;-4.130;2022-11-20T05:43:02;10.40;99.90
49765;DHT22;35657;51.204;-4.130;2022-11-20T05:45:28;10.40;99.90
49765;DHT22;35657;51.204;-4.130;2022-11-20T05:47:58;10.40;99.90
49765;DHT22;35657;51.204;-4.130;2022-11-20T05:50:24;10.40;99.90
49765;DHT22;35657;51.204;-4.130;2022-11-20T05:52:50;10.40;99.90
49765;DHT22;35657;51.204;-4.130;2022-11-20T05:55:16;10.40;99.90
49765;DHT22;35657;51.204;-4.130;2022-11-20T05:57:41;10.40;99.90
49765;DHT22;35657;51.204;-4.130;2022-11-20T06:00:08;10.40;99.90
49765;DHT22;35657;51.204;-4.130;2022-11-20T06:02:35;10.40;99.90
49765;DHT22;35657;51.204;-4.130;2022-11-20T06:05:01;10.50;99.90
49765;DHT22;35657;51.204;-4.130;2022-11-20T06:07:27;10.50;99.90
49765;DHT22;35657;51.204;-4.130;2022-11-20T06:09:52;10.50;99.90
49765;DHT22;35657;51.204;-4.130;2022-11-20T06:12:18;10.40;99.90
49765;DHT22;35657;51.204;-4.130;2022-11-20T06:14:44;10.40;99.90
49765;DHT22;35657;51.204;-4.130;2022-11-20T06:17:09;10.40;99.90
49765;DHT22;35657;51.204;-4.130;2022-11-20T06:19:35;10.40;99.90
49765;DHT22;35657;51.204;-4.130;2022-11-20T06:22:01;10.40;99.90
49765;DHT22;35657;51.204;-4.130;2022-11-20T06:24:26;10.50;99.90
49765;DHT22;35657;51.204;-4.130;2022-11-20T06:26:52;10.50;99.90
49765;DHT22;35657;51.204;-4.130;2022-11-20T06:29:18;10.50;99.90
49765;DHT22;35657;51.204;-4.130;2022-11-20T06:31:43;10.50;99.90
49765;DHT22;35657;51.204;-4.130;2022-11-20T06:34:10;10.50;99.90
49765;DHT22;35657;51.204;-4.130;2022-11-20T06:36:35;10.50;99.90
49765;DHT22;35657;51.204;-4.130;2022-11-20T06:39:01;10.50;99.90
49765;DHT22;35657;51.204;-4.130;2022-11-20T06:41:28;10.50;99.90
49765;DHT22;35657;51.204;-4.130;2022-11-20T06:43:53;10.50;99.90
49765;DHT22;35657;51.204;-4.130;2022-11-20T06:46:20;10.50;99.90
49765;DHT22;35657;51.204;-4.130;2022-11-20T06:48:47;10.50;99.90
49765;DHT22;35657;51.204;-4.130;2022-11-20T06:51:13;10.50;99.90
49765;DHT22;35657;51.204;-4.130;2022-11-20T06:53:39;10.50;99.90
49765;DHT22;35657;51.204;-4.130;2022-11-20T06:56:06;10.50;99.90
49765;DHT22;35657;51.204;-4.130;2022-11-20T06:58:33;10.50;99.90
49765;DHT22;35657;51.204;-4.130;2022-11-20T07:01:00;10.50;99.90
49765;DHT22;35657;51.204;-4.130;2022-11-20T07:03:26;10.50;99.90
49765;DHT22;35657;51.204;-4.130;2022-11-20T07:05:55;10.50;99.90
49765;DHT22;35657;51.204;-4.130;2022-11-20T07:08:21;10.40;99.90
49765;DHT22;35657;51.204;-4.130;2022-11-20T07:10:47;10.40;99.90
49765;DHT22;35657;51.204;-4.130;2022-11-20T07:13:12;10.40;99.90
49765;DHT22;35657;51.204;-4.130;2022-11-20T07:15:38;10.40;99.90
49765;DHT22;35657;51.204;-4.130;2022-11-20T07:18:04;10.40;99.90
49765;DHT22;35657;51.204;-4.130;2022-11-20T07:20:30;10.50;99.90
49765;DHT22;35657;51.204;-4.130;2022-11-20T07:22:57;10.50;99.90
49765;DHT22;35657;51.204;-4.130;2022-11-20T07:25:27;10.50;99.90
49765;DHT22;35657;51.204;-4.130;2022-11-20T07:27:56;10.50;99.90
49765;DHT22;35657;51.204;-4.130;2022-11-20T07:30:22;10.50;99.90
49765;DHT22;35657;51.204;-4.130;2022-11-20T07:32:51;10.50;99.90
49765;DHT22;35657;51.204;-4.130;2022-11-20T07:35:17;10.60;99.90
49765;DHT22;35657;51.204;-4.130;2022-11-20T07:37:43;10.60;99.90
49765;DHT22;35657;51.204;-4.130;2022-11-20T07:40:09;10.60;99.90
49765;DHT22;35657;51.204;-4.130;2022-11-20T07:42:35;10.60;99.90
49765;DHT22;35657;51.204;-4.130;2022-11-20T07:45:00;10.60;99.90
49765;DHT22;35657;51.204;-4.130;2022-11-20T07:47:26;10.60;99.90
49765;DHT22;35657;51.204;-4.130;2022-11-20T07:49:52;10.60;99.90
49765;DHT22;35657;51.204;-4.130;2022-11-20T07:52:17;10.60;99.90
49765;DHT22;35657;51.204;-4.130;2022-11-20T07:54:43;10.60;99.90
49765;DHT22;35657;51.204;-4.130;2022-11-20T07:57:08;10.60;99.90
49765;DHT22;35657;51.204;-4.130;2022-11-20T07:59:34;10.50;99.90
49765;DHT22;35657;51.204;-4.130;2022-11-20T08:02:00;10.50;99.90
49765;DHT22;35657;51.204;-4.130;2022-11-20T08:04:25;10.50;99.90
49765;DHT22;35657;51.204;-4.130;2022-11-20T08:06:54;10.50;99.90
49765;DHT22;35657;51.204;-4.130;2022-11-20T08:09:20;10.50;99.90
49765;DHT22;35657;51.204;-4.130;2022-11-20T08:11:46;10.50;99.90
49765;DHT22;35657;51.204;-4.130;2022-11-20T08:14:30;10.40;99.90
49765;DHT22;35657;51.204;-4.130;2022-11-20T08:16:56;10.40;99.90
49765;DHT22;35657;51.204;-4.130;2022-11-20T08:19:21;10.40;99.90
49765;DHT22;35657;51.204;-4.130;2022-11-20T08:21:47;10.50;99.90
49765;DHT22;35657;51.204;-4.130;2022-11-20T08:24:13;10.50;99.90
49765;DHT22;35657;51.204;-4.130;2022-11-20T08:26:39;10.40;99.90
49765;DHT22;35657;51.204;-4.130;2022-11-20T08:29:06;10.40;99.90
49765;DHT22;35657;51.204;-4.130;2022-11-20T08:31:32;10.40;99.90
49765;DHT22;35657;51.204;-4.130;2022-11-20T08:33:57;10.40;99.90
49765;DHT22;35657;51.204;-4.130;2022-11-20T08:36:24;10.40;99.90
49765;DHT22;35657;51.204;-4.130;2022-11-20T08:38:55;10.40;99.90
49765;DHT22;35657;51.204;-4.130;2022-11-20T08:41:21;10.40;99.90
49765;DHT22;35657;51.204;-4.130;2022-11-20T08:43:53;10.30;99.90
49765;DHT22;35657;51.204;-4.130;2022-11-20T08:46:19;10.30;99.90
49765;DHT22;35657;51.204;-4.130;2022-11-20T08:48:45;10.30;99.90
49765;DHT22;35657;51.204;-4.130;2022-11-20T08:51:11;10.20;99.90
49765;DHT22;35657;51.204;-4.130;2022-11-20T08:53:38;10.20;99.90
49765;DHT22;35657;51.204;-4.130;2022-11-20T08:56:04;10.20;99.90
49765;DHT22;35657;51.204;-4.130;2022-11-20T08:58:30;10.20;99.90
49765;DHT22;35657;51.204;-4.130;2022-11-20T09:00:56;10.20;99.90
49765;DHT22;35657;51.204;-4.130;2022-11-20T09:03:22;10.30;99.90
49765;DHT22;35657;51.204;-4.130;2022-11-20T09:05:47;10.20;99.90
49765;DHT22;35657;51.204;-4.130;2022-11-20T09:08:13;10.20;99.90
49765;DHT22;35657;51.204;-4.130;2022-11-20T09:10:39;10.20;99.90
49765;DHT22;35657;51.204;-4.130;2022-11-20T09:13:05;10.20;99.90
49765;DHT22;35657;51.204;-4.130;2022-11-20T09:15:31;10.20;99.90
49765;DHT22;35657;51.204;-4.130;2022-11-20T09:17:59;10.20;99.90
49765;DHT22;35657;51.204;-4.130;2022-11-20T09:20:27;10.20;99.90
49765;DHT22;35657;51.204;-4.130;2022-11-20T09:22:54;10.30;99.90
49765;DHT22;35657;51.204;-4.130;2022-11-20T09:25:20;10.30;99.90
49765;DHT22;35657;51.204;-4.130;2022-11-20T09:27:46;10.30;99.90
49765;DHT22;35657;51.204;-4.130;2022-11-20T09:30:15;10.30;99.90
49765;DHT22;35657;51.204;-4.130;2022-11-20T09:32:44;10.30;99.90
49765;DHT22;35657;51.204;-4.130;2022-11-20T09:35:10;10.40;99.90
49765;DHT22;35657;51.204;-4.130;2022-11-20T09:37:36;10.40;99.90
49765;DHT22;35657;51.204;-4.130;2022-11-20T09:40:02;10.40;99.90
49765;DHT22;35657;51.204;-4.130;2022-11-20T09:42:57;10.50;99.90
49765;DHT22;35657;51.204;-4.130;2022-11-20T09:48:29;10.50;99.90
49765;DHT22;35657;51.204;-4.130;2022-11-20T09:56:08;10.80;99.90
49765;DHT22;35657;51.204;-4.130;2022-11-20T09:58:41;10.80;99.90
49765;DHT22;35657;51.204;-4.130;2022-11-20T10:01:23;10.80;99.90
49765;DHT22;35657;51.204;-4.130;2022-11-20T10:25:37;10.90;99.90
49765;DHT22;35657;51.204;-4.130;2022-11-20T10:28:09;11.10;99.90
49765;DHT22;35657;51.204;-4.130;2022-11-20T10:30:42;11.10;99.90
49765;DHT22;35657;51.204;-4.130;2022-11-20T10:33:26;11.00;99.90
49765;DHT22;35657;51.204;-4.130;2022-11-20T10:36:08;11.00;99.90
49765;DHT22;35657;51.204;-4.130;2022-11-20T10:38:44;11.10;99.90
49765;DHT22;35657;51.204;-4.130;2022-11-20T10:41:29;11.10;99.90
49765;DHT22;35657;51.204;-4.130;2022-11-20T10:44:03;11.30;99.90
49765;DHT22;35657;51.204;-4.130;2022-11-20T10:46:37;11.40;99.90
49765;DHT22;35657;51.204;-4.130;2022-11-20T10:49:17;11.40;99.90
49765;DHT22;35657;51.204;-4.130;2022-11-20T10:52:02;11.40;99.90
49765;DHT22;35657;51.204;-4.130;2022-11-20T10:54:48;11.30;99.90
49765;DHT22;35657;51.204;-4.130;2022-11-20T11:00:06;11.20;99.90
49765;DHT22;35657;51.204;-4.130;2022-11-20T11:02:50;11.20;99.90
49765;DHT22;35657;51.204;-4.130;2022-11-20T11:07:48;11.00;99.90
49765;DHT22;35657;51.204;-4.130;2022-11-20T11:10:42;10.90;99.90
49765;DHT22;35657;51.204;-4.130;2022-11-20T11:13:24;10.90;99.90
49765;DHT22;35657;51.204;-4.130;2022-11-20T11:15:51;10.80;99.90
49765;DHT22;35657;51.204;-4.130;2022-11-20T11:18:31;10.80;99.90
49765;DHT22;35657;51.204;-4.130;2022-11-20T11:21:01;10.70;99.90
49765;DHT22;35657;51.204;-4.130;2022-11-20T11:23:39;10.70;99.90
49765;DHT22;35657;51.204;-4.130;2022-11-20T11:26:07;10.70;99.90
49765;DHT22;35657;51.204;-4.130;2022-11-20T11:28:53;10.70;99.90
49765;DHT22;35657;51.204;-4.130;2022-11-20T11:31:28;10.70;99.90
49765;DHT22;35657;51.204;-4.130;2022-11-20T11:34:07;10.70;99.90
49765;DHT22;35657;51.204;-4.130;2022-11-20T11:36:34;10.80;99.90
49765;DHT22;35657;51.204;-4.130;2022-11-20T11:39:01;10.80;99.90
49765;DHT22;35657;51.204;-4.130;2022-11-20T11:41:31;10.90;99.90
49765;DHT22;35657;51.204;-4.130;2022-11-20T11:44:02;11.00;99.90
49765;DHT22;35657;51.204;-4.130;2022-11-20T11:46:57;11.00;99.90
49765;DHT22;35657;51.204;-4.130;2022-11-20T11:49:23;10.90;99.90
49765;DHT22;35657;51.204;-4.130;2022-11-20T11:52:12;10.90;99.90
49765;DHT22;35657;51.204;-4.130;2022-11-20T11:55:01;10.90;99.90
49765;DHT22;35657;51.204;-4.130;2022-11-20T11:57:47;10.90;99.90
49765;DHT22;35657;51.204;-4.130;2022-11-20T12:00:17;10.90;99.90
49765;DHT22;35657;51.204;-4.130;2022-11-20T12:08:23;11.00;99.90
49765;DHT22;35657;51.204;-4.130;2022-11-20T12:13:54;11.00;99.90
49765;DHT22;35657;51.204;-4.130;2022-11-20T12:16:21;11.00;99.90
49765;DHT22;35657;51.204;-4.130;2022-11-20T12:18:50;11.10;99.90
49765;DHT22;35657;51.204;-4.130;2022-11-20T12:21:31;11.10;99.90
49765;DHT22;35657;51.204;-4.130;2022-11-20T12:24:14;11.20;99.90
49765;DHT22;35657;51.204;-4.130;2022-11-20T12:29:59;11.20;99.90
49765;DHT22;35657;51.204;-4.130;2022-11-20T12:53:05;11.30;99.90
49765;DHT22;35657;51.204;-4.130;2022-11-20T12:58:18;11.20;99.90
49765;DHT22;35657;51.204;-4.130;2022-11-20T13:01:18;11.20;99.90
49765;DHT22;35657;51.204;-4.130;2022-11-20T13:04:37;11.20;99.90
49765;DHT22;35657;51.204;-4.130;2022-11-20T13:07:12;11.20;99.90
49765;DHT22;35657;51.204;-4.130;2022-11-20T13:09:46;11.20;99.90
49765;DHT22;35657;51.204;-4.130;2022-11-20T13:12:43;11.20;99.90
49765;DHT22;35657;51.204;-4.130;2022-11-20T13:18:11;11.20;99.90
49765;DHT22;35657;51.204;-4.130;2022-11-20T13:20:42;11.30;99.90
49765;DHT22;35657;51.204;-4.130;2022-11-20T13:23:08;11.30;99.90
49765;DHT22;35657;51.204;-4.130;2022-11-20T13:25:36;11.30;99.90
49765;DHT22;35657;51.204;-4.130;2022-11-20T13:30:48;11.40;99.90
49765;DHT22;35657;51.204;-4.130;2022-11-20T13:33:41;11.30;99.90
49765;DHT22;35657;51.204;-4.130;2022-11-20T13:36:23;11.30;99.90
49765;DHT22;35657;51.204;-4.130;2022-11-20T13:38:54;11.30;99.90
49765;DHT22;35657;51.204;-4.130;2022-11-20T13:41:35;11.20;99.90
49765;DHT22;35657;51.204;-4.130;2022-11-20T13:46:36;11.20;99.90
49765;DHT22;35657;51.204;-4.130;2022-11-20T13:49:07;11.10;99.90
49765;DHT22;35657;51.204;-4.130;2022-11-20T13:51:43;11.20;99.90
49765;DHT22;35657;51.204;-4.130;2022-11-20T13:57:34;11.10;99.90
49765;DHT22;35657;51.204;-4.130;2022-11-20T14:02:14;11.20;99.90
49765;DHT22;35657;51.204;-4.130;2022-11-20T14:04:47;11.20;99.90
49765;DHT22;35657;51.204;-4.130;2022-11-20T14:07:14;11.20;99.90
49765;DHT22;35657;51.204;-4.130;2022-11-20T14:09:53;11.20;99.90
49765;DHT22;35657;51.204;-4.130;2022-11-20T14:12:30;11.30;99.90
49765;DHT22;35657;51.204;-4.130;2022-11-20T14:14:57;11.30;99.90
49765;DHT22;35657;51.204;-4.130;2022-11-20T14:17:29;11.30;99.90
49765;DHT22;35657;51.204;-4.130;2022-11-20T14:19:58;11.30;99.90
49765;DHT22;35657;51.204;-4.130;2022-11-20T14:22:26;11.30;99.90
49765;DHT22;35657;51.204;-4.130;2022-11-20T14:27:39;11.30;99.90
49765;DHT22;35657;51.204;-4.130;2022-11-20T14:30:16;11.30;99.90
49765;DHT22;35657;51.204;-4.130;2022-11-20T14:32:43;11.30;99.90
49765;DHT22;35657;51.204;-4.130;2022-11-20T14:35:24;11.30;99.90
49765;DHT22;35657;51.204;-4.130;2022-11-20T14:37:50;11.30;99.90
49765;DHT22;35657;51.204;-4.130;2022-11-20T14:40:25;11.30;99.90
49765;DHT22;35657;51.204;-4.130;2022-11-20T14:42:52;11.30;99.90
49765;DHT22;35657;51.204;-4.130;2022-11-20T14:45:18;11.30;99.90
49765;DHT22;35657;51.204;-4.130;2022-11-20T14:47:46;11.30;99.90
49765;DHT22;35657;51.204;-4.130;2022-11-20T14:50:19;11.40;99.90
49765;DHT22;35657;51.204;-4.130;2022-11-20T14:53:11;11.30;99.90
49765;DHT22;35657;51.204;-4.130;2022-11-20T14:55:55;11.40;99.90
49765;DHT22;35657;51.204;-4.130;2022-11-20T14:58:24;11.40;99.90
49765;DHT22;35657;51.204;-4.130;2022-11-20T15:01:01;11.40;99.90
49765;DHT22;35657;51.204;-4.130;2022-11-20T15:03:57;11.40;99.90
49765;DHT22;35657;51.204;-4.130;2022-11-20T15:06:27;11.40;99.90
49765;DHT22;35657;51.204;-4.130;2022-11-20T15:08:53;11.50;99.90
49765;DHT22;35657;51.204;-4.130;2022-11-20T15:11:24;11.50;99.90
49765;DHT22;35657;51.204;-4.130;2022-11-20T15:13:51;11.50;99.90
49765;DHT22;35657;51.204;-4.130;2022-11-20T15:16:21;11.50;99.90
49765;DHT22;35657;51.204;-4.130;2022-11-20T15:18:48;11.50;99.90
49765;DHT22;35657;51.204;-4.130;2022-11-20T15:21:19;11.50;99.90
49765;DHT22;35657;51.204;-4.130;2022-11-20T15:23:46;11.50;99.90
49765;DHT22;35657;51.204;-4.130;2022-11-20T15:26:14;11.50;99.90
49765;DHT22;35657;51.204;-4.130;2022-11-20T15:28:42;11.50;99.90
49765;DHT22;35657;51.204;-4.130;2022-11-20T15:31:14;11.50;99.90
49765;DHT22;35657;51.204;-4.130;2022-11-20T15:33:40;11.40;99.90
49765;DHT22;35657;51.204;-4.130;2022-11-20T15:36:07;11.40;99.90
49765;DHT22;35657;51.204;-4.130;2022-11-20T15:38:32;11.40;99.90
49765;DHT22;35657;51.204;-4.130;2022-11-20T15:40:58;11.40;99.90
49765;DHT22;35657;51.204;-4.130;2022-11-20T15:43:24;11.30;99.90
49765;DHT22;35657;51.204;-4.130;2022-11-20T15:45:53;11.30;99.90
49765;DHT22;35657;51.204;-4.130;2022-11-20T15:48:28;11.30;99.90
49765;DHT22;35657;51.204;-4.130;2022-11-20T15:53:35;11.20;99.90
49765;DHT22;35657;51.204;-4.130;2022-11-20T15:56:01;11.20;99.90
49765;DHT22;35657;51.204;-4.130;2022-11-20T15:58:27;11.20;99.90
49765;DHT22;35657;51.204;-4.130;2022-11-20T16:00:53;11.20;99.90
49765;DHT22;35657;51.204;-4.130;2022-11-20T16:03:19;11.20;99.90
49765;DHT22;35657;51.204;-4.130;2022-11-20T16:05:45;11.20;99.90
49765;DHT22;35657;51.204;-4.130;2022-11-20T16:08:12;11.20;99.90
49765;DHT22;35657;51.204;-4.130;2022-11-20T16:10:38;11.20;99.90
49765;DHT22;35657;51.204;-4.130;2022-11-20T16:13:04;11.20;99.90
49765;DHT22;35657;51.204;-4.130;2022-11-20T16:15:56;11.20;99.90
49765;DHT22;35657;51.204;-4.130;2022-11-20T16:18:23;11.10;99.90
49765;DHT22;35657;51.204;-4.130;2022-11-20T16:20:51;11.20;99.90
49765;DHT22;35657;51.204;-4.130;2022-11-20T16:23:18;11.10;99.90
49765;DHT22;35657;51.204;-4.130;2022-11-20T16:25:44;11.10;99.90
49765;DHT22;35657;51.204;-4.130;2022-11-20T16:28:11;11.10;99.90
49765;DHT22;35657;51.204;-4.130;2022-11-20T16:30:37;11.10;99.90
49765;DHT22;35657;51.204;-4.130;2022-11-20T16:33:03;11.10;99.90
49765;DHT22;35657;51.204;-4.130;2022-11-20T16:35:32;11.10;99.90
49765;DHT22;35657;51.204;-4.130;2022-11-20T16:37:58;11.10;99.90
49765;DHT22;35657;51.204;-4.130;2022-11-20T16:40:24;11.10;99.90
49765;DHT22;35657;51.204;-4.130;2022-11-20T16:42:50;11.10;99.90
49765;DHT22;35657;51.204;-4.130;2022-11-20T16:45:17;11.10;99.90
49765;DHT22;35657;51.204;-4.130;2022-11-20T16:47:43;11.10;99.90
49765;DHT22;35657;51.204;-4.130;2022-11-20T16:50:09;11.10;99.90
49765;DHT22;35657;51.204;-4.130;2022-11-20T16:52:35;11.10;99.90
49765;DHT22;35657;51.204;-4.130;2022-11-20T16:55:01;11.10;99.90
49765;DHT22;35657;51.204;-4.130;2022-11-20T16:57:27;11.20;99.90
49765;DHT22;35657;51.204;-4.130;2022-11-20T16:59:54;11.20;99.90
49765;DHT22;35657;51.204;-4.130;2022-11-20T17:02:20;11.20;99.90
49765;DHT22;35657;51.204;-4.130;2022-11-20T17:04:46;11.20;99.90